Time;durP1;ratioP1;P1;durP2;ratioP2;P2;SDS_P1;SDS_P2;PMS_P1;PMS_P2;Temp;Humidity;BMP_temperature;BMP_pressure;BME280_temperature;BME280_humidity;BME280_pressure;Samples;Min_cycle;Max_cycle;Signal;HPM_P1;HPM_P2
2021/10/15 00:02:00;;;;;;;10.23;4.95;;;;;;;;;;5095116;28;20077;-85
2021/10/15 00:04:26;;;;;;;10.05;4.97;;;;;;;;;;5096339;28;20036;-85
2021/10/15 00:06:52;;;;;;;9.85;4.68;;;;;;;;;;5094931;28;20045;-86
2021/10/15 00:09:18;;;;;;;10.65;5.03;;;;;;;;;;5094966;28;20502;-85
2021/10/15 00:11:45;;;;;;;10.38;4.55;;;;;;;;;;5094932;28;20024;-85
2021/10/15 00:14:12;;;;;;;13.88;6.30;;;;;;;;;;5094881;28;20016;-85
2021/10/15 00:16:38;;;;;;;16.30;6.88;;;;;;;;;;5096983;28;20032;-85
2021/10/15 00:19:05;;;;;;;16.52;6.93;;;;;;;;;;5095987;28;20024;-85
2021/10/15 00:21:31;;;;;;;12.13;5.85;;;;;;;;;;5094719;28;20035;-86
2021/10/15 00:23:58;;;;;;;12.95;6.68;;;;;;;;;;5096478;28;20036;-89
2021/10/15 00:26:24;;;;;;;13.57;6.35;;;;;;;;;;5094660;28;20111;-85
2021/10/15 00:28:50;;;;;;;15.50;6.13;;;;;;;;;;5094552;28;20069;-86
2021/10/15 00:31:17;;;;;;;13.07;6.70;;;;;;;;;;5094645;28;20389;-89
2021/10/15 00:33:43;;;;;;;11.32;5.60;;;;;;;;;;5095777;28;20494;-86
2021/10/15 00:36:09;;;;;;;11.80;5.30;;;;;;;;;;5094432;28;20028;-85
2021/10/15 00:38:36;;;;;;;9.98;4.85;;;;;;;;;;5095656;28;20095;-86
2021/10/15 00:41:02;;;;;;;10.00;5.22;;;;;;;;;;5095675;28;20020;-89
2021/10/15 00:43:28;;;;;;;11.07;5.20;;;;;;;;;;5094253;28;20036;-85
2021/10/15 00:45:55;;;;;;;12.05;5.00;;;;;;;;;;5095413;28;20020;-85
2021/10/15 00:48:21;;;;;;;12.13;5.60;;;;;;;;;;5095480;28;20027;-86
2021/10/15 00:50:48;;;;;;;8.77;5.03;;;;;;;;;;5094033;28;20032;-85
2021/10/15 00:53:14;;;;;;;14.85;5.93;;;;;;;;;;5094120;28;20032;-85
2021/10/15 00:55:43;;;;;;;10.07;5.43;;;;;;;;;;5093900;28;20085;-85
2021/10/15 00:58:09;;;;;;;12.00;6.05;;;;;;;;;;5094013;28;20126;-85
2021/10/15 01:00:35;;;;;;;10.68;5.43;;;;;;;;;;5095226;28;20028;-85
2021/10/15 01:03:02;;;;;;;11.27;5.25;;;;;;;;;;5095065;28;20040;-85
2021/10/15 01:05:29;;;;;;;11.80;5.10;;;;;;;;;;5094178;28;20036;-86
2021/10/15 01:07:56;;;;;;;10.75;5.53;;;;;;;;;;5093065;28;20119;-85
2021/10/15 01:10:23;;;;;;;11.68;5.70;;;;;;;;;;5095615;28;20025;-85
2021/10/15 01:12:50;;;;;;;9.93;5.15;;;;;;;;;;5095577;28;20061;-86
2021/10/15 01:15:16;;;;;;;11.25;5.43;;;;;;;;;;5095029;28;20035;-84
2021/10/15 01:17:43;;;;;;;10.88;5.13;;;;;;;;;;5095396;28;20028;-89
2021/10/15 01:20:09;;;;;;;13.38;6.03;;;;;;;;;;5095487;28;20028;-85
2021/10/15 01:22:35;;;;;;;11.88;5.72;;;;;;;;;;5093382;28;20497;-87
2021/10/15 01:25:01;;;;;;;15.45;6.97;;;;;;;;;;5094715;28;20028;-88
2021/10/15 01:27:28;;;;;;;13.57;6.15;;;;;;;;;;5093565;28;20468;-85
2021/10/15 01:29:54;;;;;;;10.80;5.40;;;;;;;;;;5094644;28;20028;-86
2021/10/15 01:32:20;;;;;;;11.38;5.57;;;;;;;;;;5094682;28;20034;-85
2021/10/15 01:34:47;;;;;;;11.85;5.40;;;;;;;;;;5093409;28;20073;-86
2021/10/15 01:37:14;;;;;;;13.63;6.28;;;;;;;;;;5094633;28;20483;-85
2021/10/15 01:39:40;;;;;;;12.02;5.68;;;;;;;;;;5093223;28;20059;-86
2021/10/15 01:42:53;;;;;;;13.00;6.20;;;;;;;;;;5093108;28;20031;-85
2021/10/15 01:44:53;;;;;;;11.88;6.55;;;;;;;;;;5094294;28;20086;-85
2021/10/15 01:47:20;;;;;;;9.52;5.22;;;;;;;;;;5093093;28;20062;-89
2021/10/15 01:49:46;;;;;;;10.65;5.38;;;;;;;;;;5094766;28;20024;-86
2021/10/15 01:52:13;;;;;;;12.52;6.00;;;;;;;;;;5092972;28;20024;-85
2021/10/15 01:54:40;;;;;;;10.02;5.65;;;;;;;;;;5093015;28;20031;-85
2021/10/15 01:57:06;;;;;;;10.05;5.53;;;;;;;;;;5094076;28;20123;-86
2021/10/15 01:59:32;;;;;;;10.10;5.57;;;;;;;;;;5093012;28;20035;-88
2021/10/15 02:02:00;;;;;;;11.40;5.25;;;;;;;;;;5093988;28;20032;-87
2021/10/15 02:04:26;;;;;;;14.77;6.10;;;;;;;;;;5094016;28;20575;-85
2021/10/15 02:06:52;;;;;;;11.43;5.93;;;;;;;;;;5094099;28;20012;-85
2021/10/15 02:09:19;;;;;;;10.38;5.40;;;;;;;;;;5093978;28;20369;-85
2021/10/15 02:11:45;;;;;;;11.48;5.82;;;;;;;;;;5092707;28;20546;-85
2021/10/15 02:14:11;;;;;;;13.20;7.25;;;;;;;;;;5092715;28;20078;-90
2021/10/15 02:16:37;;;;;;;14.70;7.88;;;;;;;;;;5092749;28;20058;-87
2021/10/15 02:19:04;;;;;;;17.25;8.77;;;;;;;;;;5093854;28;20028;-87
2021/10/15 02:21:30;;;;;;;14.27;7.90;;;;;;;;;;5093870;28;20030;-86
2021/10/15 02:23:56;;;;;;;20.45;10.10;;;;;;;;;;5093859;28;20032;-89
2021/10/15 02:26:23;;;;;;;25.23;10.40;;;;;;;;;;5092605;28;20020;-86
2021/10/15 02:28:49;;;;;;;24.02;11.48;;;;;;;;;;5092501;28;20059;-87
2021/10/15 02:31:15;;;;;;;27.08;15.25;;;;;;;;;;5094367;28;20024;-86
2021/10/15 02:33:41;;;;;;;33.67;16.25;;;;;;;;;;5093794;28;20020;-86
2021/10/15 02:36:08;;;;;;;16.98;7.40;;;;;;;;;;5092711;28;20096;-85
2021/10/15 02:38:34;;;;;;;15.98;8.27;;;;;;;;;;5092613;28;20027;-86
2021/10/15 02:41:00;;;;;;;14.98;7.53;;;;;;;;;;5092396;28;20024;-90
2021/10/15 02:43:27;;;;;;;15.90;6.68;;;;;;;;;;5093694;28;20388;-85
2021/10/15 02:45:56;;;;;;;13.18;6.60;;;;;;;;;;5092835;28;20101;-83
2021/10/15 02:48:22;;;;;;;12.35;6.43;;;;;;;;;;5093232;28;20027;-85
2021/10/15 02:50:48;;;;;;;13.75;6.32;;;;;;;;;;5092487;28;20056;-86
2021/10/15 02:53:15;;;;;;;11.52;5.82;;;;;;;;;;5093659;28;20028;-85
2021/10/15 02:55:41;;;;;;;12.98;6.20;;;;;;;;;;5092201;28;20123;-85
2021/10/15 02:58:07;;;;;;;11.80;6.22;;;;;;;;;;5092486;28;20118;-86
2021/10/15 03:00:33;;;;;;;11.10;6.13;;;;;;;;;;5095279;28;20122;-86
2021/10/15 03:02:59;;;;;;;12.85;6.32;;;;;;;;;;5093537;28;20111;-86
2021/10/15 03:05:26;;;;;;;11.43;5.97;;;;;;;;;;5092340;28;20028;-86
2021/10/15 03:07:52;;;;;;;12.70;6.50;;;;;;;;;;5093565;28;20028;-86
2021/10/15 03:10:19;;;;;;;11.73;7.22;;;;;;;;;;5092143;28;20472;-87
2021/10/15 03:12:45;;;;;;;12.82;6.80;;;;;;;;;;5093358;28;20437;-85
2021/10/15 03:15:12;;;;;;;12.27;7.30;;;;;;;;;;5092149;28;20051;-86
2021/10/15 03:17:38;;;;;;;13.95;6.88;;;;;;;;;;5092151;28;20028;-86
2021/10/15 03:20:05;;;;;;;15.57;7.70;;;;;;;;;;5092286;28;20027;-85
2021/10/15 03:22:31;;;;;;;13.70;7.13;;;;;;;;;;5091894;28;20385;-85
2021/10/15 03:24:57;;;;;;;14.65;7.10;;;;;;;;;;5091930;28;20032;-85
2021/10/15 03:27:23;;;;;;;13.82;7.20;;;;;;;;;;5091924;28;20020;-85
2021/10/15 03:29:50;;;;;;;16.10;6.85;;;;;;;;;;5092218;28;20017;-85
2021/10/15 03:32:16;;;;;;;18.80;7.97;;;;;;;;;;5097032;28;20063;-86
2021/10/15 03:34:43;;;;;;;13.55;6.70;;;;;;;;;;5095538;28;20027;-85
2021/10/15 03:37:09;;;;;;;11.65;6.20;;;;;;;;;;5095556;28;20032;-85
2021/10/15 03:39:35;;;;;;;13.57;6.80;;;;;;;;;;5095501;28;20480;-85
2021/10/15 03:42:02;;;;;;;12.90;6.70;;;;;;;;;;5097220;28;20031;-85
2021/10/15 03:44:28;;;;;;;13.50;6.75;;;;;;;;;;5096790;28;20107;-89
2021/10/15 03:46:54;;;;;;;14.27;6.47;;;;;;;;;;5095348;28;20070;-85
2021/10/15 03:49:20;;;;;;;18.60;6.68;;;;;;;;;;5095346;28;20031;-85
2021/10/15 03:51:46;;;;;;;12.25;6.60;;;;;;;;;;5095383;28;20031;-86
2021/10/15 03:54:12;;;;;;;13.82;6.90;;;;;;;;;;5095179;28;20032;-84
2021/10/15 03:56:39;;;;;;;12.52;6.50;;;;;;;;;;5095032;28;20051;-85
2021/10/15 03:59:05;;;;;;;13.30;6.53;;;;;;;;;;5095113;28;20028;-85
2021/10/15 04:01:31;;;;;;;11.77;6.00;;;;;;;;;;5095147;28;20020;-85
2021/10/15 04:03:57;;;;;;;13.73;6.32;;;;;;;;;;5094998;28;20040;-85
2021/10/15 04:06:24;;;;;;;11.30;6.03;;;;;;;;;;5094937;28;20362;-86
2021/10/15 04:08:50;;;;;;;14.25;6.20;;;;;;;;;;5096786;28;20028;-85
2021/10/15 04:11:17;;;;;;;12.27;5.82;;;;;;;;;;5094904;28;20032;-86
2021/10/15 04:13:43;;;;;;;11.55;5.85;;;;;;;;;;5094866;28;20052;-86
2021/10/15 04:16:10;;;;;;;13.07;6.60;;;;;;;;;;5096165;28;20474;-85
2021/10/15 04:18:36;;;;;;;11.63;6.05;;;;;;;;;;5094718;28;20035;-85
2021/10/15 04:21:03;;;;;;;11.15;6.63;;;;;;;;;;5094704;28;20028;-85
2021/10/15 04:23:29;;;;;;;13.48;7.10;;;;;;;;;;5094551;28;20036;-85
2021/10/15 04:25:55;;;;;;;14.65;7.03;;;;;;;;;;5094619;28;20102;-86
2021/10/15 04:28:22;;;;;;;14.90;7.13;;;;;;;;;;5094611;28;20028;-86
2021/10/15 04:30:48;;;;;;;14.80;6.93;;;;;;;;;;5094476;28;20539;-85
2021/10/15 04:33:14;;;;;;;12.93;6.43;;;;;;;;;;5094521;28;20484;-86
2021/10/15 04:35:41;;;;;;;12.27;6.38;;;;;;;;;;5094514;28;20028;-89
2021/10/15 04:38:07;;;;;;;12.80;7.15;;;;;;;;;;5094524;28;20024;-85
2021/10/15 04:40:33;;;;;;;14.32;7.05;;;;;;;;;;5096235;28;20027;-84
2021/10/15 04:42:59;;;;;;;11.27;6.32;;;;;;;;;;5093115;28;20039;-85
2021/10/15 04:45:25;;;;;;;14.98;6.95;;;;;;;;;;5095626;28;20468;-86
2021/10/15 04:47:51;;;;;;;15.27;7.20;;;;;;;;;;5094418;28;20030;-88
2021/10/15 04:50:18;;;;;;;12.95;6.95;;;;;;;;;;5095533;28;20020;-89
2021/10/15 04:52:44;;;;;;;15.25;7.35;;;;;;;;;;5094288;28;20410;-86
2021/10/15 04:55:10;;;;;;;12.60;6.93;;;;;;;;;;5093670;28;20428;-85
2021/10/15 04:57:36;;;;;;;13.43;6.78;;;;;;;;;;5095319;28;20040;-86
2021/10/15 05:00:03;;;;;;;16.02;7.25;;;;;;;;;;5094232;28;20450;-86
2021/10/15 05:02:29;;;;;;;15.10;7.22;;;;;;;;;;5093849;28;20043;-86
2021/10/15 05:04:57;;;;;;;15.43;7.75;;;;;;;;;;5095454;28;20066;-86
2021/10/15 05:07:25;;;;;;;18.48;8.15;;;;;;;;;;5093789;28;20036;-85
2021/10/15 05:09:51;;;;;;;15.68;7.70;;;;;;;;;;5095068;28;20047;-84
2021/10/15 05:12:17;;;;;;;22.73;8.88;;;;;;;;;;5093698;28;20027;-84
2021/10/15 05:14:44;;;;;;;13.25;7.25;;;;;;;;;;5093661;28;20024;-86
2021/10/15 05:17:10;;;;;;;15.40;7.78;;;;;;;;;;5092161;28;20040;-84
2021/10/15 05:19:36;;;;;;;15.68;8.45;;;;;;;;;;5090956;28;20051;-84
2021/10/15 05:22:02;;;;;;;15.02;7.38;;;;;;;;;;5093264;28;20039;-84
2021/10/15 05:24:29;;;;;;;17.15;7.75;;;;;;;;;;5092747;28;20397;-84
2021/10/15 05:26:55;;;;;;;17.20;7.32;;;;;;;;;;5092997;28;20024;-85
2021/10/15 05:29:22;;;;;;;18.67;8.63;;;;;;;;;;5093378;28;20024;-84
2021/10/15 05:31:48;;;;;;;16.95;7.25;;;;;;;;;;5093504;28;20051;-84
2021/10/15 05:34:14;;;;;;;17.00;7.88;;;;;;;;;;5093293;28;20035;-86
2021/10/15 05:36:40;;;;;;;14.77;7.72;;;;;;;;;;5093287;28;20500;-86
2021/10/15 05:39:07;;;;;;;14.90;7.10;;;;;;;;;;5093256;28;20020;-85
2021/10/15 05:41:33;;;;;;;18.98;8.60;;;;;;;;;;5094324;28;20200;-86
2021/10/15 05:43:59;;;;;;;14.05;7.50;;;;;;;;;;5094377;28;20068;-84
2021/10/15 05:46:25;;;;;;;16.42;8.20;;;;;;;;;;5094443;28;20020;-86
2021/10/15 05:48:52;;;;;;;17.75;8.30;;;;;;;;;;5093050;28;20028;-85
2021/10/15 05:51:19;;;;;;;15.05;7.75;;;;;;;;;;5094301;28;20070;-85
2021/10/15 05:53:46;;;;;;;20.00;7.95;;;;;;;;;;5094076;28;20101;-85
2021/10/15 05:59:03;;;;;;;15.85;7.85;;;;;;;;;;5094543;28;20434;-86
2021/10/15 06:01:30;;;;;;;17.75;8.35;;;;;;;;;;5092873;28;20052;-86
2021/10/15 06:14:24;;;;;;;13.55;7.30;;;;;;;;;;5093966;28;20028;-85
2021/10/15 06:16:53;;;;;;;17.15;7.57;;;;;;;;;;5093861;28;20020;-86
2021/10/15 06:19:22;;;;;;;15.43;8.52;;;;;;;;;;5092726;28;20032;-87
2021/10/15 06:21:49;;;;;;;17.13;7.85;;;;;;;;;;5092596;28;20032;-85
2021/10/15 06:24:15;;;;;;;19.85;8.52;;;;;;;;;;5092452;28;20127;-85
2021/10/15 06:26:42;;;;;;;15.45;8.52;;;;;;;;;;5092546;28;20055;-85
2021/10/15 06:29:08;;;;;;;18.05;8.82;;;;;;;;;;5092681;28;20038;-86
2021/10/15 06:31:35;;;;;;;16.27;8.52;;;;;;;;;;5092400;28;20020;-86
2021/10/15 06:34:01;;;;;;;17.50;8.65;;;;;;;;;;5093720;28;20021;-86
2021/10/15 06:36:27;;;;;;;18.75;7.95;;;;;;;;;;5092429;28;20035;-85
2021/10/15 06:38:54;;;;;;;15.82;8.05;;;;;;;;;;5092313;28;20031;-86
2021/10/15 06:41:20;;;;;;;17.08;8.15;;;;;;;;;;5087078;28;20039;-85
2021/10/15 06:43:46;;;;;;;18.83;8.68;;;;;;;;;;5089477;28;20072;-84
2021/10/15 06:46:13;;;;;;;20.55;8.27;;;;;;;;;;5092122;28;20492;-85
2021/10/15 06:48:39;;;;;;;18.25;10.02;;;;;;;;;;5092153;28;20031;-85
2021/10/15 06:51:05;;;;;;;24.63;9.50;;;;;;;;;;5093330;28;20024;-85
2021/10/15 06:53:31;;;;;;;16.25;8.48;;;;;;;;;;5093802;28;20024;-86
2021/10/15 06:55:58;;;;;;;18.88;8.30;;;;;;;;;;5091796;28;20040;-86
2021/10/15 06:58:24;;;;;;;19.17;8.82;;;;;;;;;;5092989;28;20032;-85
2021/10/15 07:00:50;;;;;;;15.35;7.80;;;;;;;;;;5093230;28;20497;-86
2021/10/15 07:03:19;;;;;;;20.30;9.52;;;;;;;;;;5071765;28;20032;-89
2021/10/15 07:05:46;;;;;;;15.65;8.65;;;;;;;;;;5073662;28;20025;-87
2021/10/15 07:08:13;;;;;;;18.13;9.35;;;;;;;;;;5075608;28;20397;-85
2021/10/15 07:10:39;;;;;;;17.30;8.35;;;;;;;;;;5076089;28;20052;-86
2021/10/15 07:13:09;;;;;;;19.23;9.05;;;;;;;;;;5078174;28;20086;-84
2021/10/15 07:15:35;;;;;;;16.73;8.88;;;;;;;;;;5084282;28;20029;-85
2021/10/15 07:18:03;;;;;;;19.42;9.07;;;;;;;;;;5075914;28;20400;-86
2021/10/15 07:20:30;;;;;;;18.00;9.13;;;;;;;;;;5075551;28;20115;-86
2021/10/15 07:22:56;;;;;;;14.50;8.18;;;;;;;;;;5075723;28;20403;-86
2021/10/15 07:25:23;;;;;;;18.70;8.80;;;;;;;;;;5075925;28;20017;-85
2021/10/15 07:27:49;;;;;;;19.88;10.35;;;;;;;;;;5075463;28;20477;-85
2021/10/15 07:30:16;;;;;;;14.70;8.48;;;;;;;;;;5075499;28;20020;-87
2021/10/15 07:32:42;;;;;;;15.40;8.75;;;;;;;;;;5075394;28;20036;-86
2021/10/15 07:35:09;;;;;;;18.35;8.70;;;;;;;;;;5075355;28;20021;-86
2021/10/15 07:37:36;;;;;;;22.33;10.40;;;;;;;;;;5075467;28;20491;-86
2021/10/15 07:40:03;;;;;;;20.65;9.93;;;;;;;;;;5075334;28;20048;-88
2021/10/15 07:42:29;;;;;;;14.57;7.88;;;;;;;;;;5075143;28;20029;-87
2021/10/15 07:44:55;;;;;;;15.13;8.80;;;;;;;;;;5075171;28;20060;-86
2021/10/15 07:47:21;;;;;;;17.60;9.35;;;;;;;;;;5075064;28;20020;-86
2021/10/15 07:49:48;;;;;;;16.27;8.45;;;;;;;;;;5075160;28;20056;-86
2021/10/15 07:52:14;;;;;;;22.20;8.70;;;;;;;;;;5075067;28;20021;-86
2021/10/15 07:54:40;;;;;;;15.00;7.97;;;;;;;;;;5075086;28;20033;-86
2021/10/15 07:57:06;;;;;;;22.35;8.77;;;;;;;;;;5075866;28;20049;-85
2021/10/15 07:59:33;;;;;;;14.50;7.95;;;;;;;;;;5074965;28;20039;-86
2021/10/15 08:01:59;;;;;;;16.05;7.45;;;;;;;;;;5076122;28;20048;-86
2021/10/15 08:04:25;;;;;;;17.10;8.32;;;;;;;;;;5074808;28;20036;-86
2021/10/15 08:06:51;;;;;;;12.77;7.07;;;;;;;;;;5076042;28;20032;-86
2021/10/15 08:09:18;;;;;;;15.40;7.63;;;;;;;;;;5074732;28;20078;-85
2021/10/15 08:11:45;;;;;;;13.25;7.63;;;;;;;;;;5086313;28;20028;-86
2021/10/15 08:14:11;;;;;;;17.15;7.53;;;;;;;;;;5094677;28;20430;-87
2021/10/15 08:16:37;;;;;;;13.02;7.25;;;;;;;;;;5094731;28;20353;-86
2021/10/15 08:19:03;;;;;;;12.85;7.05;;;;;;;;;;5095281;28;20085;-86
2021/10/15 08:21:30;;;;;;;14.05;8.15;;;;;;;;;;5095318;28;20051;-87
2021/10/15 08:23:56;;;;;;;13.60;7.85;;;;;;;;;;5094971;28;20032;-89
2021/10/15 08:26:22;;;;;;;18.88;7.90;;;;;;;;;;5095148;28;20031;-86
2021/10/15 08:28:57;;;;;;;14.40;8.25;;;;;;;;;;5097107;28;20024;-85
2021/10/15 08:31:27;;;;;;;17.00;7.95;;;;;;;;;;5097165;28;20118;-85
2021/10/15 08:33:54;;;;;;;15.13;8.60;;;;;;;;;;5098276;28;20051;-85
2021/10/15 08:36:22;;;;;;;14.13;7.78;;;;;;;;;;5096598;28;20024;-85
2021/10/15 08:38:50;;;;;;;16.20;8.02;;;;;;;;;;5095423;28;20024;-86
2021/10/15 08:41:26;;;;;;;16.45;8.23;;;;;;;;;;5094346;28;20504;-85
2021/10/15 08:43:54;;;;;;;16.20;8.65;;;;;;;;;;5095398;28;20032;-85
2021/10/15 08:46:24;;;;;;;14.90;7.95;;;;;;;;;;5096167;28;20024;-86
2021/10/15 08:48:51;;;;;;;15.32;8.57;;;;;;;;;;5094161;28;20024;-85
2021/10/15 08:51:19;;;;;;;12.75;7.25;;;;;;;;;;5094147;28;20024;-85
2021/10/15 08:53:47;;;;;;;16.02;7.78;;;;;;;;;;5094140;28;20035;-87
2021/10/15 08:56:15;;;;;;;14.30;7.97;;;;;;;;;;5093599;28;20159;-85
2021/10/15 08:58:54;;;;;;;13.98;7.55;;;;;;;;;;5093980;28;20524;-85
2021/10/15 09:01:20;;;;;;;12.63;7.90;;;;;;;;;;5094049;28;20020;-84
2021/10/15 09:03:46;;;;;;;15.50;8.35;;;;;;;;;;5093829;28;20115;-85
2021/10/15 09:06:13;;;;;;;13.60;8.27;;;;;;;;;;5094246;28;20070;-85
2021/10/15 09:08:57;;;;;;;14.90;8.50;;;;;;;;;;5095994;28;20024;-85
2021/10/15 09:11:34;;;;;;;11.98;7.80;;;;;;;;;;5094624;28;20059;-85
2021/10/15 09:14:12;;;;;;;14.20;8.52;;;;;;;;;;5094883;28;20111;-85
2021/10/15 09:16:56;;;;;;;18.58;8.77;;;;;;;;;;5095770;28;20045;-85
2021/10/15 09:19:24;;;;;;;16.17;8.55;;;;;;;;;;5095322;28;20024;-85
2021/10/15 09:22:07;;;;;;;17.30;8.70;;;;;;;;;;5096438;28;20035;-85
2021/10/15 09:24:36;;;;;;;13.88;8.77;;;;;;;;;;5094781;28;20036;-85
2021/10/15 09:27:19;;;;;;;13.23;8.10;;;;;;;;;;5094898;28;20376;-86
2021/10/15 09:29:47;;;;;;;14.67;8.40;;;;;;;;;;5094608;28;20032;-85
2021/10/15 09:32:13;;;;;;;13.88;8.95;;;;;;;;;;5094001;28;20028;-84
2021/10/15 09:34:40;;;;;;;19.58;12.88;;;;;;;;;;5093646;28;20028;-86
2021/10/15 09:37:12;;;;;;;17.67;11.93;;;;;;;;;;5093427;28;20464;-84
2021/10/15 09:39:38;;;;;;;16.08;11.00;;;;;;;;;;5093178;28;20073;-84
2021/10/15 09:42:15;;;;;;;13.23;9.18;;;;;;;;;;5093170;28;20024;-85
2021/10/15 09:44:41;;;;;;;14.98;9.70;;;;;;;;;;5093151;28;20040;-85
2021/10/15 09:47:16;;;;;;;13.80;8.80;;;;;;;;;;5094350;28;20028;-85
2021/10/15 09:49:47;;;;;;;23.65;9.95;;;;;;;;;;5093035;28;20024;-84
2021/10/15 09:52:22;;;;;;;14.38;9.52;;;;;;;;;;5092988;28;20139;-83
2021/10/15 09:54:58;;;;;;;17.20;10.15;;;;;;;;;;5093256;28;20028;-86
2021/10/15 09:57:31;;;;;;;18.52;10.75;;;;;;;;;;5094403;28;20078;-85
2021/10/15 09:59:58;;;;;;;;;;;;;;;;;;5094421;28;20077;-84
2021/10/15 10:02:24;;;;;;;16.40;10.43;;;;;;;;;;5092720;28;19911;-85
2021/10/15 10:04:53;;;;;;;18.00;11.07;;;;;;;;;;5094130;28;20024;-84
2021/10/15 10:07:19;;;;;;;18.55;11.02;;;;;;;;;;5094136;28;20020;-84
2021/10/15 10:09:45;;;;;;;18.42;11.68;;;;;;;;;;5094452;28;20031;-86
2021/10/15 10:12:12;;;;;;;16.55;11.15;;;;;;;;;;5092935;28;20024;-86
2021/10/15 10:14:39;;;;;;;14.40;9.88;;;;;;;;;;5093368;28;20085;-84
2021/10/15 10:17:08;;;;;;;14.85;9.45;;;;;;;;;;5093239;28;20028;-86
2021/10/15 10:19:37;;;;;;;19.42;10.55;;;;;;;;;;5092251;28;20035;-86
2021/10/15 10:22:04;;;;;;;13.32;9.52;;;;;;;;;;5094008;28;20024;-86
2021/10/15 10:24:32;;;;;;;16.25;10.80;;;;;;;;;;5093614;28;20111;-85
2021/10/15 10:26:59;;;;;;;14.70;9.75;;;;;;;;;;5092563;28;20119;-85
2021/10/15 10:29:27;;;;;;;15.50;9.85;;;;;;;;;;5092835;28;20028;-85
2021/10/15 10:32:13;;;;;;;16.00;9.80;;;;;;;;;;5093013;28;20024;-83
2021/10/15 10:34:39;;;;;;;12.98;8.88;;;;;;;;;;5092514;28;20048;-85
2021/10/15 10:37:06;;;;;;;11.77;8.05;;;;;;;;;;5094260;28;20034;-85
2021/10/15 10:39:35;;;;;;;12.27;7.93;;;;;;;;;;5093981;28;20350;-86
2021/10/15 10:42:07;;;;;;;13.30;8.02;;;;;;;;;;5093794;28;20032;-83
2021/10/15 10:44:35;;;;;;;12.77;8.10;;;;;;;;;;5093436;28;20032;-85
2021/10/15 10:47:15;;;;;;;12.18;7.80;;;;;;;;;;5093698;28;20076;-85
2021/10/15 10:49:42;;;;;;;12.50;8.20;;;;;;;;;;5093075;28;20028;-85
2021/10/15 10:52:10;;;;;;;11.85;7.47;;;;;;;;;;5093371;28;20158;-85
2021/10/15 10:54:36;;;;;;;10.70;7.35;;;;;;;;;;5093521;28;20054;-85
2021/10/15 10:57:16;;;;;;;11.45;7.03;;;;;;;;;;5093030;28;20135;-85
2021/10/15 10:59:43;;;;;;;14.55;7.50;;;;;;;;;;5093795;28;20017;-84
2021/10/15 11:02:14;;;;;;;7.88;5.18;;;;;;;;;;5092606;28;20169;-85
2021/10/15 11:04:44;;;;;;;9.13;5.30;;;;;;;;;;5092672;28;20043;-86
2021/10/15 11:07:21;;;;;;;8.38;5.20;;;;;;;;;;5092012;28;20034;-86
2021/10/15 11:09:49;;;;;;;12.95;5.55;;;;;;;;;;5092066;28;20071;-86
2021/10/15 11:12:27;;;;;;;9.02;5.47;;;;;;;;;;5091888;28;20027;-86
2021/10/15 11:15:06;;;;;;;10.48;5.55;;;;;;;;;;5093860;28;20028;-86
2021/10/15 11:17:32;;;;;;;8.43;4.70;;;;;;;;;;5092624;28;20020;-86
2021/10/15 11:20:17;;;;;;;11.55;5.93;;;;;;;;;;5092558;28;20544;-86
2021/10/15 11:22:55;;;;;;;14.95;5.72;;;;;;;;;;5095018;28;20515;-86
2021/10/15 11:25:23;;;;;;;10.07;5.28;;;;;;;;;;5093209;28;20028;-86
2021/10/15 11:27:53;;;;;;;8.73;5.50;;;;;;;;;;5092534;28;20035;-86
2021/10/15 11:30:20;;;;;;;10.20;5.95;;;;;;;;;;5093570;28;20070;-85
2021/10/15 11:32:48;;;;;;;8.70;5.20;;;;;;;;;;5093239;28;20422;-85
2021/10/15 11:35:19;;;;;;;10.07;6.55;;;;;;;;;;5092045;28;20032;-85
2021/10/15 11:37:48;;;;;;;8.35;5.20;;;;;;;;;;5092733;28;20027;-86
2021/10/15 11:40:19;;;;;;;15.80;6.45;;;;;;;;;;5092405;28;20556;-83
2021/10/15 11:42:45;;;;;;;14.00;5.72;;;;;;;;;;5091780;28;20035;-84
2021/10/15 11:45:25;;;;;;;10.18;5.60;;;;;;;;;;5091711;28;20031;-84
2021/10/15 11:47:58;;;;;;;9.82;5.57;;;;;;;;;;5091470;28;20361;-84
2021/10/15 11:50:36;;;;;;;6.90;4.82;;;;;;;;;;5092206;28;20025;-83
2021/10/15 11:53:03;;;;;;;11.23;5.70;;;;;;;;;;5096200;28;20032;-83
2021/10/15 11:55:36;;;;;;;7.82;5.15;;;;;;;;;;5094326;28;20046;-84
2021/10/15 11:58:18;;;;;;;11.02;6.20;;;;;;;;;;5095354;28;20040;-83
2021/10/15 12:00:57;;;;;;;9.75;5.55;;;;;;;;;;5095310;28;20550;-85
2021/10/15 12:03:28;;;;;;;11.95;5.00;;;;;;;;;;5096287;28;20040;-84
2021/10/15 12:05:54;;;;;;;10.55;6.35;;;;;;;;;;5095068;28;20028;-84
2021/10/15 12:08:21;;;;;;;10.13;6.95;;;;;;;;;;5094902;28;20043;-84
2021/10/15 12:10:47;;;;;;;11.93;7.20;;;;;;;;;;5095017;28;20052;-82
2021/10/15 12:13:13;;;;;;;12.35;7.70;;;;;;;;;;5096331;28;20024;-82
2021/10/15 12:15:40;;;;;;;14.23;7.78;;;;;;;;;;5096744;28;20047;-85
2021/10/15 12:18:07;;;;;;;14.20;7.93;;;;;;;;;;5094858;28;20020;-83
2021/10/15 12:20:33;;;;;;;14.73;8.27;;;;;;;;;;5096574;28;20170;-83
2021/10/15 12:23:06;;;;;;;14.68;8.75;;;;;;;;;;5094714;28;20036;-83
2021/10/15 12:25:35;;;;;;;15.07;9.32;;;;;;;;;;5094702;28;20024;-83
2021/10/15 12:28:11;;;;;;;13.43;8.95;;;;;;;;;;5094647;28;20365;-83
2021/10/15 12:30:37;;;;;;;13.00;8.50;;;;;;;;;;5094547;28;20051;-83
2021/10/15 12:33:07;;;;;;;13.00;8.77;;;;;;;;;;5096423;28;20034;-81
2021/10/15 12:35:33;;;;;;;13.52;8.15;;;;;;;;;;5094474;28;20392;-83
2021/10/15 12:38:00;;;;;;;12.25;8.00;;;;;;;;;;5094462;28;20081;-83
2021/10/15 12:40:29;;;;;;;13.15;8.52;;;;;;;;;;5095659;28;20024;-83
2021/10/15 12:42:56;;;;;;;12.75;7.63;;;;;;;;;;5094243;28;20021;-85
2021/10/15 12:45:27;;;;;;;14.23;8.23;;;;;;;;;;5094297;28;20024;-85
2021/10/15 12:48:03;;;;;;;11.40;7.35;;;;;;;;;;5094205;28;20389;-83
2021/10/15 12:50:31;;;;;;;21.85;12.98;;;;;;;;;;5094265;28;20024;-83
2021/10/15 12:52:57;;;;;;;10.77;7.32;;;;;;;;;;5094286;28;20552;-83
2021/10/15 12:55:27;;;;;;;10.73;6.25;;;;;;;;;;5104637;28;20047;-86
2021/10/15 12:58:04;;;;;;;15.43;6.93;;;;;;;;;;5114178;28;20492;-83
2021/10/15 13:00:30;;;;;;;10.63;6.47;;;;;;;;;;5113791;28;20081;-83
2021/10/15 13:03:03;;;;;;;13.10;6.70;;;;;;;;;;5113160;28;20028;-83
2021/10/15 13:05:29;;;;;;;11.25;7.72;;;;;;;;;;5114288;28;20028;-88
2021/10/15 13:07:56;;;;;;;12.45;7.03;;;;;;;;;;5114356;28;20468;-82
2021/10/15 13:10:23;;;;;;;10.30;7.22;;;;;;;;;;5114229;28;20020;-84
2021/10/15 13:12:50;;;;;;;12.02;7.32;;;;;;;;;;5114125;28;20118;-83
2021/10/15 13:15:17;;;;;;;10.90;6.93;;;;;;;;;;5115874;28;20065;-83
2021/10/15 13:17:43;;;;;;;11.52;6.95;;;;;;;;;;5114038;28;20085;-87
2021/10/15 13:20:10;;;;;;;10.70;6.32;;;;;;;;;;5115296;28;20039;-83
2021/10/15 13:22:37;;;;;;;8.88;6.10;;;;;;;;;;5113872;28;20023;-83
2021/10/15 13:25:03;;;;;;;10.90;5.93;;;;;;;;;;5115700;28;20020;-83
2021/10/15 13:27:29;;;;;;;8.00;5.93;;;;;;;;;;5113776;28;20472;-86
2021/10/15 13:29:56;;;;;;;11.02;5.57;;;;;;;;;;5115073;28;20080;-82
2021/10/15 13:32:22;;;;;;;7.82;5.35;;;;;;;;;;5113729;28;20034;-82
2021/10/15 13:34:49;;;;;;;9.25;5.32;;;;;;;;;;5113660;28;20020;-83
2021/10/15 13:37:19;;;;;;;9.40;4.82;;;;;;;;;;5114894;28;20019;-82
2021/10/15 13:39:48;;;;;;;9.55;5.15;;;;;;;;;;5114866;28;20365;-83
2021/10/15 13:50:30;;;;;;;9.20;5.88;;;;;;;;;;5116375;28;20051;-82
2021/10/15 13:52:56;;;;;;;8.77;5.30;;;;;;;;;;5113630;28;20024;-83
2021/10/15 13:55:22;;;;;;;10.35;7.03;;;;;;;;;;5112900;28;20468;-81
2021/10/15 13:57:48;;;;;;;10.77;4.97;;;;;;;;;;5115200;28;20115;-83
2021/10/15 14:00:28;;;;;;;11.75;6.85;;;;;;;;;;5113185;28;20505;-83
2021/10/15 14:02:55;;;;;;;10.80;6.47;;;;;;;;;;5115294;28;20364;-83
2021/10/15 14:05:24;;;;;;;11.52;6.65;;;;;;;;;;5114326;28;20024;-83
2021/10/15 14:07:50;;;;;;;11.90;6.95;;;;;;;;;;5113543;28;20547;-82
2021/10/15 14:10:16;;;;;;;10.48;6.05;;;;;;;;;;5114728;28;20023;-83
2021/10/15 14:12:42;;;;;;;11.93;6.22;;;;;;;;;;5113984;28;20509;-84
2021/10/15 14:15:09;;;;;;;10.10;6.03;;;;;;;;;;5113023;28;20114;-83
2021/10/15 14:17:35;;;;;;;11.75;5.38;;;;;;;;;;5113901;28;20092;-83
2021/10/15 14:20:01;;;;;;;11.73;6.32;;;;;;;;;;5112961;28;20127;-86
2021/10/15 14:22:27;;;;;;;10.90;5.68;;;;;;;;;;5101669;28;20016;-85
2021/10/15 14:24:53;;;;;;;10.88;5.47;;;;;;;;;;5092418;28;20149;-82
2021/10/15 14:27:19;;;;;;;9.43;5.68;;;;;;;;;;5092390;28;20024;-84
2021/10/15 14:29:47;;;;;;;10.32;5.15;;;;;;;;;;5091110;28;20102;-86
2021/10/15 14:32:14;;;;;;;7.28;4.50;;;;;;;;;;5091069;28;20084;-83
2021/10/15 14:34:40;;;;;;;10.13;5.10;;;;;;;;;;5090948;28;20013;-83
2021/10/15 14:37:06;;;;;;;11.75;5.13;;;;;;;;;;5091048;28;20484;-86
2021/10/15 14:39:33;;;;;;;8.60;5.00;;;;;;;;;;5091113;28;20019;-83
2021/10/15 14:41:59;;;;;;;11.98;5.35;;;;;;;;;;5090812;28;20028;-84
2021/10/15 14:44:25;;;;;;;6.88;4.50;;;;;;;;;;5090884;28;20043;-87
2021/10/15 14:46:51;;;;;;;8.23;4.22;;;;;;;;;;5092113;28;20023;-86
2021/10/15 14:49:17;;;;;;;9.68;4.30;;;;;;;;;;5092061;28;20032;-87
2021/10/15 14:51:44;;;;;;;14.73;4.53;;;;;;;;;;5094596;28;20020;-85
2021/10/15 14:54:10;;;;;;;6.85;3.83;;;;;;;;;;5095007;28;20032;-84
2021/10/15 14:56:36;;;;;;;7.75;3.83;;;;;;;;;;5093735;28;20109;-83